Terminal Aerodrome Forecast
Issued by NWS

Home | Current Version | Previous Version | Text Only | Print | Product List | Glossary On
Versions: 1 2 3 4 5 6 7 8 9 10 11 12 13 14 15 16 17 18 19 20 21 22 23 24 25 26 27 28 29 30 31 32 33 34 35 36 37 38 39 40 41 42 43
000
FTUS46 KPQR 270520
TAFONP
TAF
KONP 270520Z 2706/2806 VRB03KT 6SM BR SCT250
     FM270700 00000KT 4SM BR SCT003 SCT250
     FM271000 00000KT 2SM BR OVC003
     FM271500 18004KT 5SM BR OVC003
     FM271800 21012KT P6SM SCT003 SCT015
     FM272000 21013G22KT P6SM SCT015 BKN050
     FM280100 22012KT P6SM -RA BKN015=

USA.gov is the U.S. government's official web portal to all federal, state and local government web resources and services.